Salida, CO

8:56 PM MDT on October 25, 2014 (GMT -0600)
Salida | Change Station
CLOSE
Current Station
Airport
Location: Salida,
Elevation: 7523 ft
Nearby Weather Stations

Elev 7523 ft 38.54 °N, 106.05 °W | Updated 41 minutes ago

Clear
Clear
59 °F
Feels Like 59 °F
N
13
Wind Variable Wind from West
Gusts 16 mph

Today
High -- | Low -- °F
--% Chance of Precip.
Yesterday
High -- | Low -- °F
Precip. -- in
7:23 AM 6:12 PM
Waxing Crescent, 5% visible
Pressure 30.29 in
Visibility 10.0 miles
Clouds Clear
Dew Point 19 °F
Humidity 22%
Rainfall 0.00 in
Snow Depth Not available.
UV 0 out of 12
Pollen 3.00 out of 12
Air Quality Not available.
Flu Activity Sporadic
METAR KANK 260215Z AUTO 26011G14KT 10SM CLR 15/M07 A3029 RMK AO1 T01501070

More Conditions Fewer Conditions

Pressure 30.29 in
Visibility 10.0 miles
Clouds Clear
Dew Point 19 °F
Humidity 22%
Rainfall 0.00 in
Snow Depth Not available.
UV 0 out of 12
Pollen 3.00 out of 12
Air Quality Not available.
Flu Activity Sporadic
METAR KANK 260215Z AUTO 26011G14KT 10SM CLR 15/M07 A3029 RMK AO1 T01501070

More Conditions Fewer Conditions

10-Day Weather Forecast

Almanac

Astronomy

Oct. 25, 2014 Rise Set
Actual Time 7:23 AM MDT 6:12 PM MDT
Civil Twilight 6:56 AM MDT 6:39 PM MDT
Nautical Twilight 6:25 AM MDT 7:10 PM MDT
Astronomical Twilight 5:54 AM MDT 7:41 PM MDT
Moon 9:03 AM MDT (10/25) 7:38 PM MDT (10/25)
Length of Visible Light 11h 43m
Length of Day
10h 49m
Tomorrow will be 2m 17s shorter.
Waxing Crescent, 5% of the Moon is Illuminated
Today
Waxing Crescent
Oct 30
First Quarter
Nov 6
Full
Nov 14
Last Quarter
Nov 22
New

Today's Extremes

State Highs State Lows

Community

WunderPhotos

Upload Photos

1,765,086 photos uploaded!

Nearby

Snow Depth

Station Depth Elevation
Brumley 0 in 10600 ft
Independence Pass 0 in 10600 ft
Glen Cove 1 in 11460 ft
Medano Pass 0 in 9620 ft
Ivanhoe 0 in 10400 ft

Earthquake Activity

City Distance Mag. Time & Date
No recent earthquake activity has been reported nearby.
Minimum magnitude displayed is 2.5.

Coastal Water Temperatures

Place Temperature
No Stations Reporting

Nearby Weather Stations